createdAt,value
2022-12-19T00:02:54.373Z,102413.28
2022-12-19T00:06:59.153Z,102417.56
2022-12-19T00:11:02.412Z,102429.28
2022-12-19T00:15:04.136Z,102417.38
2022-12-19T00:19:05.664Z,102431.78
2022-12-19T00:23:07.647Z,102418.53
2022-12-19T00:27:09.087Z,102414.84
2022-12-19T00:31:15.625Z,102392.47
2022-12-19T00:35:17.103Z,102398.59
2022-12-19T00:39:18.680Z,102397.69
2022-12-19T00:43:20.635Z,102417.63
2022-12-19T00:47:22.220Z,102410.75
2022-12-19T00:51:26.607Z,102392.78
2022-12-19T00:55:28.057Z,102379.22
2022-12-19T00:59:29.488Z,102360.97
2022-12-19T01:03:31.208Z,102341.19
2022-12-19T01:07:32.734Z,102336.81
2022-12-19T01:11:54.241Z,102322.84
2022-12-19T01:15:56.106Z,102334.69
2022-12-19T01:19:57.726Z,102333.63
2022-12-19T01:23:59.136Z,102307.50
2022-12-19T01:28:00.954Z,102313.78
2022-12-19T01:32:03.568Z,102316.25
2022-12-19T01:36:10.193Z,102309.69
2022-12-19T01:40:14.772Z,102294.56
2022-12-19T01:44:16.187Z,102284.97
2022-12-19T01:48:22.662Z,102282.25
2022-12-19T01:52:24.854Z,102279.41
2022-12-19T01:56:37.043Z,102291.34
2022-12-19T02:00:40.944Z,102286.22
2022-12-19T02:04:46.107Z,102298.00
2022-12-19T02:08:48.791Z,102287.50
2022-12-19T02:12:50.362Z,102269.25
2022-12-19T02:16:58.113Z,102271.22
2022-12-19T02:21:17.696Z,102261.19
2022-12-19T02:25:41.205Z,102266.00
2022-12-19T02:30:05.452Z,102272.09
2022-12-19T02:34:14.787Z,102267.88
2022-12-19T02:38:39.880Z,102251.38
2022-12-19T02:42:48.732Z,102238.75
2022-12-19T02:46:52.972Z,102229.41
2022-12-19T02:50:57.759Z,102227.16
2022-12-19T02:55:13.030Z,102231.84
2022-12-19T02:59:29.434Z,102222.81
2022-12-19T03:03:38.200Z,102220.22
2022-12-19T03:08:06.146Z,102227.94
2022-12-19T03:12:17.711Z,102233.50
2022-12-19T03:16:19.514Z,102238.09
2022-12-19T03:20:32.529Z,102225.97
2022-12-19T03:24:34.177Z,102228.00
2022-12-19T03:29:01.230Z,102218.69
2022-12-19T03:33:03.573Z,102215.22
2022-12-19T03:37:10.004Z,102217.88
2022-12-19T03:41:14.187Z,102214.09
2022-12-19T03:45:22.971Z,102221.19
2022-12-19T03:49:26.699Z,102214.72
2022-12-19T03:53:51.622Z,102208.63
2022-12-19T03:58:07.474Z,102206.06
2022-12-19T04:02:11.838Z,102205.38
2022-12-19T04:06:14.364Z,102211.56
2022-12-19T04:10:19.151Z,102215.34
2022-12-19T04:14:28.259Z,102205.91
2022-12-19T04:18:31.364Z,102207.09
2022-12-19T04:22:49.162Z,102200.53
2022-12-19T04:26:54.467Z,102195.09
2022-12-19T04:30:56.295Z,102186.97
2022-12-19T04:35:00.659Z,102185.13
2022-12-19T04:39:02.104Z,102167.50
2022-12-19T04:43:03.626Z,102157.97
2022-12-19T04:47:05.094Z,102147.25
2022-12-19T04:51:06.925Z,102134.59
2022-12-19T04:55:08.863Z,102125.53
2022-12-19T04:59:10.694Z,102116.03
2022-12-19T05:03:12.160Z,102111.22
2022-12-19T05:07:13.896Z,102109.16
2022-12-19T05:11:19.752Z,102101.69
2022-12-19T05:15:21.754Z,102080.75
2022-12-19T05:19:23.300Z,102072.22
2022-12-19T05:23:25.018Z,102072.28
2022-12-19T05:27:26.478Z,102065.84
2022-12-19T05:31:27.992Z,102058.84
2022-12-19T05:35:29.491Z,102036.50
2022-12-19T05:39:30.923Z,102039.19
2022-12-19T05:43:32.308Z,102027.56
2022-12-19T05:47:33.888Z,102028.09
2022-12-19T05:51:35.426Z,102033.88
2022-12-19T05:55:36.934Z,102032.84
2022-12-19T05:59:38.354Z,102027.25
2022-12-19T06:03:39.923Z,102019.34
2022-12-19T06:07:41.397Z,102007.28
2022-12-19T06:11:42.892Z,102000.47
2022-12-19T06:15:44.364Z,102007.94
2022-12-19T06:19:45.883Z,102005.78
2022-12-19T06:23:48.015Z,102008.47
2022-12-19T06:27:49.412Z,102000.38
2022-12-19T06:31:50.858Z,101995.13
2022-12-19T06:36:06.323Z,101981.44
2022-12-19T06:40:28.595Z,101983.91
2022-12-19T06:44:31.917Z,101985.00
2022-12-19T06:48:33.901Z,101978.00
2022-12-19T06:52:35.364Z,101978.88
2022-12-19T06:56:37.867Z,101974.94
2022-12-19T07:00:39.542Z,101968.09
2022-12-19T07:04:45.432Z,101968.75
2022-12-19T07:08:47.325Z,101972.34
2022-12-19T07:12:48.783Z,101983.88
2022-12-19T07:16:52.496Z,101984.84
2022-12-19T07:20:54.054Z,101985.50
2022-12-19T07:24:56.525Z,101975.16
2022-12-19T07:28:58.886Z,101970.31
2022-12-19T07:33:00.315Z,101960.53
2022-12-19T07:37:01.780Z,101959.41
2022-12-19T07:41:03.258Z,101948.53
2022-12-19T07:45:05.247Z,101951.81
2022-12-19T07:49:06.907Z,101939.63
2022-12-19T07:53:08.466Z,101940.41
2022-12-19T07:57:09.940Z,101935.13
2022-12-19T08:01:12.474Z,101932.53
2022-12-19T08:05:14.204Z,101923.00
2022-12-19T08:09:15.941Z,101927.75
2022-12-19T08:13:17.365Z,101926.09
2022-12-19T08:17:20.772Z,101921.50
2022-12-19T08:21:23.162Z,101920.94
2022-12-19T08:25:26.448Z,101901.41
2022-12-19T08:29:27.861Z,101897.31
2022-12-19T08:33:29.300Z,101892.56
2022-12-19T08:37:30.723Z,101886.41
2022-12-19T08:41:32.243Z,101883.72
2022-12-19T08:45:33.677Z,101870.09
2022-12-19T08:49:35.239Z,101868.13
2022-12-19T08:53:39.480Z,101862.91
2022-12-19T08:57:41.121Z,101874.63
2022-12-19T09:01:42.663Z,101847.81
2022-12-19T09:06:04.062Z,101832.16
2022-12-19T09:10:06.197Z,101830.75
2022-12-19T09:14:07.750Z,101833.81
2022-12-19T09:18:09.189Z,101827.66
2022-12-19T09:22:10.617Z,101829.56
2022-12-19T09:26:13.407Z,101825.44
2022-12-19T09:30:15.781Z,101816.34
2022-12-19T09:34:17.248Z,101794.75
2022-12-19T09:38:19.885Z,101796.25
2022-12-19T09:42:41.288Z,101792.00
2022-12-19T09:47:24.625Z,101793.94
2022-12-19T09:51:55.671Z,101791.13
2022-12-19T09:55:58.219Z,101795.09
2022-12-19T10:00:11.661Z,101785.38
2022-12-19T10:04:18.282Z,101781.94
2022-12-19T10:08:31.648Z,101770.25
2022-12-19T10:13:15.291Z,101767.84
2022-12-19T10:17:47.496Z,101772.41
2022-12-19T10:22:18.593Z,101763.00
2022-12-19T10:26:30.074Z,101740.28
2022-12-19T10:31:07.267Z,101741.38
2022-12-19T10:35:17.669Z,101737.91
2022-12-19T10:39:29.494Z,101729.00
2022-12-19T10:43:54.971Z,101719.81
2022-12-19T10:47:57.781Z,101721.97
2022-12-19T10:52:02.394Z,101718.97
2022-12-19T10:56:20.404Z,101711.28
2022-12-19T11:00:23.571Z,101701.16
2022-12-19T11:04:30.322Z,101698.59
2022-12-19T11:08:35.564Z,101694.44
2022-12-19T11:17:40.952Z,101684.66
2022-12-19T11:20:44.998Z,101663.91
2022-12-19T11:29:37.515Z,101659.97
2022-12-19T11:30:43.748Z,101671.41
2022-12-19T11:34:50.312Z,101655.69
2022-12-19T11:38:54.101Z,101649.66
2022-12-19T11:43:43.855Z,101658.25
2022-12-19T11:48:17.295Z,101656.69
2022-12-19T11:53:05.699Z,101650.53
2022-12-19T11:57:12.955Z,101636.66
2022-12-19T12:01:39.559Z,101630.19
2022-12-19T12:05:45.854Z,101621.78
2022-12-19T12:15:19.003Z,101607.81
2022-12-19T12:25:24.919Z,101609.66
2022-12-19T12:31:07.036Z,101608.88
2022-12-19T12:31:48.338Z,101574.88
2022-12-19T12:31:53.741Z,101585.41
2022-12-19T12:35:40.782Z,101562.75
2022-12-19T12:38:44.264Z,101569.53
2022-12-19T12:43:04.630Z,101560.97
2022-12-19T12:47:20.536Z,101566.13
2022-12-19T12:51:24.675Z,101569.53
2022-12-19T12:55:31.176Z,101559.47
2022-12-19T12:59:32.798Z,101565.38
2022-12-19T13:03:34.979Z,101558.72
2022-12-19T13:07:51.240Z,101561.00
2022-12-19T13:12:36.538Z,101553.22
2022-12-19T13:16:43.988Z,101546.75
2022-12-19T13:20:48.189Z,101551.13
2022-12-19T13:24:58.069Z,101548.00
2022-12-19T13:29:26.514Z,101537.44
2022-12-19T13:33:52.640Z,101533.84
2022-12-19T13:39:59.748Z,101536.81
2022-12-19T13:42:46.021Z,101531.00
2022-12-19T13:46:47.864Z,101524.53
2022-12-19T13:50:49.852Z,101527.38
2022-12-19T13:54:57.066Z,101527.56
2022-12-19T13:59:04.643Z,101525.03
2022-12-19T14:03:15.488Z,101513.75
2022-12-19T14:07:30.444Z,101507.75
2022-12-19T14:12:19.106Z,101503.03
2022-12-19T14:16:04.979Z,101510.38
2022-12-19T14:22:11.741Z,101511.78
2022-12-19T14:25:45.096Z,101509.94
2022-12-19T14:29:45.543Z,101502.28
2022-12-19T14:34:18.437Z,101513.13
2022-12-19T14:39:25.206Z,101508.66
2022-12-19T14:43:58.791Z,101510.69
2022-12-19T14:52:25.481Z,101510.47
2022-12-19T14:54:28.084Z,101494.22
2022-12-19T14:56:53.847Z,101493.66
2022-12-19T15:01:09.660Z,101492.22
2022-12-19T15:05:17.102Z,101482.63
2022-12-19T15:11:06.383Z,101486.63
2022-12-19T15:14:53.358Z,101485.44
2022-12-19T15:18:36.330Z,101478.44
2022-12-19T15:22:37.901Z,101483.19
2022-12-19T15:26:48.051Z,101470.25
2022-12-19T15:30:59.820Z,101468.22
2022-12-19T15:35:01.703Z,101462.84
2022-12-19T15:39:04.652Z,101453.69
2022-12-19T15:43:23.747Z,101458.47
2022-12-19T15:47:37.065Z,101466.59
2022-12-19T15:51:39.687Z,101456.97
2022-12-19T15:55:43.942Z,101450.91
2022-12-19T15:59:47.391Z,101445.81
2022-12-19T16:03:50.921Z,101453.56
2022-12-19T16:07:54.661Z,101462.72
2022-12-19T16:11:58.250Z,101451.28
2022-12-19T16:16:01.430Z,101441.47
2022-12-19T16:20:05.142Z,101442.94
2022-12-19T16:24:08.441Z,101440.19
2022-12-19T16:28:32.182Z,101444.53
2022-12-19T16:32:35.095Z,101441.81
2022-12-19T16:36:36.690Z,101440.75
2022-12-19T16:40:39.571Z,101434.78
2022-12-19T16:44:41.707Z,101439.44
2022-12-19T16:48:54.981Z,101435.00
2022-12-19T16:53:04.185Z,101429.75
2022-12-19T16:57:22.488Z,101427.97
2022-12-19T17:01:35.367Z,101422.66
2022-12-19T17:05:44.976Z,101407.78
2022-12-19T17:09:54.086Z,101419.91
2022-12-19T17:14:03.137Z,101409.28
2022-12-19T17:18:12.353Z,101392.06
2022-12-19T17:22:21.777Z,101395.75
2022-12-19T17:26:25.594Z,101395.28
2022-12-19T17:30:27.405Z,101391.16
2022-12-19T17:34:31.869Z,101392.13
2022-12-19T17:38:33.998Z,101383.69
2022-12-19T17:42:37.580Z,101378.94
2022-12-19T17:46:39.639Z,101381.22
2022-12-19T17:50:41.683Z,101371.91
2022-12-19T17:54:44.173Z,101377.69
2022-12-19T17:58:46.098Z,101359.34
2022-12-19T18:02:49.212Z,101361.56
2022-12-19T18:06:51.570Z,101356.81
2022-12-19T18:10:56.404Z,101355.38
2022-12-19T18:14:57.986Z,101358.72
2022-12-19T18:18:59.508Z,101355.25
2022-12-19T18:23:01.636Z,101359.09
2022-12-19T18:27:03.179Z,101354.19
2022-12-19T18:31:13.952Z,101347.25
2022-12-19T18:35:28.015Z,101342.56
2022-12-19T18:39:30.654Z,101343.84
2022-12-19T18:43:32.640Z,101344.06
2022-12-19T18:47:34.103Z,101349.56
2022-12-19T18:51:35.745Z,101339.06
2022-12-19T18:55:39.879Z,101341.63
2022-12-19T18:59:41.452Z,101340.72
2022-12-19T19:03:51.056Z,101357.38
2022-12-19T19:07:52.739Z,101361.63
2022-12-19T19:11:54.397Z,101344.09
2022-12-19T19:15:59.581Z,101337.50
2022-12-19T19:20:02.551Z,101338.38
2022-12-19T19:24:08.021Z,101347.22
2022-12-19T19:28:09.608Z,101348.44
2022-12-19T19:32:11.091Z,101350.44
2022-12-19T19:36:17.591Z,101343.84
2022-12-19T19:40:19.540Z,101358.03
2022-12-19T19:44:21.040Z,101349.03
2022-12-19T19:48:22.476Z,101356.50
2022-12-19T19:52:23.970Z,101348.47
2022-12-19T19:56:25.562Z,101343.06
2022-12-19T20:00:27.173Z,101357.28
2022-12-19T20:04:29.146Z,101338.25
2022-12-19T20:08:38.642Z,101343.63
2022-12-19T20:12:40.820Z,101350.16
2022-12-19T20:16:43.469Z,101349.25
2022-12-19T20:20:47.856Z,101348.34
2022-12-19T20:24:49.547Z,101352.06
2022-12-19T20:28:51.615Z,101361.69
2022-12-19T20:32:53.024Z,101366.13
2022-12-19T20:36:54.600Z,101352.88
2022-12-19T20:40:56.069Z,101344.22
2022-12-19T20:44:57.519Z,101350.25
2022-12-19T20:48:59.151Z,101352.19
2022-12-19T20:53:00.690Z,101352.09
2022-12-19T20:57:02.411Z,101345.16
2022-12-19T21:01:07.456Z,101346.84
2022-12-19T21:05:09.532Z,101339.28
2022-12-19T21:09:11.442Z,101339.19
2022-12-19T21:13:12.910Z,101342.75
2022-12-19T21:17:14.607Z,101328.72
2022-12-19T21:21:23.482Z,101333.16
2022-12-19T21:25:25.297Z,101325.47
2022-12-19T21:29:26.719Z,101337.50
2022-12-19T21:33:28.615Z,101344.38
2022-12-19T21:37:30.120Z,101339.97
2022-12-19T21:41:32.550Z,101346.06
2022-12-19T21:45:33.998Z,101339.06
2022-12-19T21:49:35.421Z,101330.56
2022-12-19T21:53:38.184Z,101328.69
2022-12-19T21:57:40.509Z,101329.78
2022-12-19T22:01:42.716Z,101328.00
2022-12-19T22:05:44.275Z,101322.72
2022-12-19T22:09:45.741Z,101330.06
2022-12-19T22:13:48.794Z,101327.47
2022-12-19T22:17:50.247Z,101320.44
2022-12-19T22:21:51.701Z,101315.16
2022-12-19T22:26:01.373Z,101317.78
2022-12-19T22:30:08.752Z,101313.38
2022-12-19T22:34:15.233Z,101314.28
2022-12-19T22:38:16.986Z,101322.97
2022-12-19T22:42:18.642Z,101319.59
2022-12-19T22:46:22.685Z,101315.16
2022-12-19T22:50:24.207Z,101326.56
2022-12-19T22:54:25.673Z,101326.50
2022-12-19T22:58:28.722Z,101314.31
2022-12-19T23:02:30.495Z,101308.06
2022-12-19T23:06:34.400Z,101325.63
2022-12-19T23:10:35.831Z,101311.56
2022-12-19T23:14:37.274Z,101304.44
2022-12-19T23:18:39.882Z,101290.34
2022-12-19T23:22:41.316Z,101316.88
2022-12-19T23:26:43.077Z,101308.69
2022-12-19T23:30:44.547Z,101301.69
2022-12-19T23:34:45.986Z,101304.47
2022-12-19T23:38:47.463Z,101310.63
2022-12-19T23:42:48.991Z,101306.22
2022-12-19T23:46:51.118Z,101301.78
2022-12-19T23:51:04.585Z,101303.13
2022-12-19T23:55:06.655Z,101314.06
2022-12-19T23:59:08.177Z,101320.66
